sensor_id;sensor_type;location;lat;lon;timestamp;pressure;altitude;pressure_sealevel;temperature;humidity
10688;BME280;5392;42.688;23.298;2023-04-28T00:02:07;57382.13;;;-144.48;74.40
10688;BME280;5392;42.688;23.298;2023-04-28T00:04:33;57380.03;;;-144.48;74.26
10688;BME280;5392;42.688;23.298;2023-04-28T00:07:01;57354.97;;;-144.48;74.34
10688;BME280;5392;42.688;23.298;2023-04-28T00:09:27;57388.38;;;-144.48;74.27
10688;BME280;5392;42.688;23.298;2023-04-28T00:11:54;57386.28;;;-144.48;74.64
10688;BME280;5392;42.688;23.298;2023-04-28T00:14:21;57348.72;;;-144.48;74.97
10688;BME280;5392;42.688;23.298;2023-04-28T00:16:47;57361.25;;;-144.48;74.81
10688;BME280;5392;42.688;23.298;2023-04-28T00:19:14;57369.59;;;-144.48;74.92
10688;BME280;5392;42.688;23.298;2023-04-28T00:21:41;57419.69;;;-144.48;74.75
10688;BME280;5392;42.688;23.298;2023-04-28T00:24:08;57367.50;;;-144.48;75.06
10688;BME280;5392;42.688;23.298;2023-04-28T00:26:34;57346.63;;;-144.48;75.83
10688;BME280;5392;42.688;23.298;2023-04-28T00:29:02;57377.94;;;-144.48;75.78
10688;BME280;5392;42.688;23.298;2023-04-28T00:31:28;57371.69;;;-144.48;76.01
10688;BME280;5392;42.688;23.298;2023-04-28T00:33:55;57329.94;;;-144.48;76.64
10688;BME280;5392;42.688;23.298;2023-04-28T00:36:22;57382.13;;;-144.48;76.34
10688;BME280;5392;42.688;23.298;2023-04-28T00:38:48;57338.28;;;-144.48;76.32
10688;BME280;5392;42.688;23.298;2023-04-28T00:41:15;57361.25;;;-144.48;76.41
10688;BME280;5392;42.688;23.298;2023-04-28T00:43:48;57413.44;;;-144.48;76.51
10688;BME280;5392;42.688;23.298;2023-04-28T00:46:30;57367.50;;;-144.48;76.55
10688;BME280;5392;42.688;23.298;2023-04-28T00:48:58;57398.81;;;-144.48;76.97
10688;BME280;5392;42.688;23.298;2023-04-28T00:51:25;57388.38;;;-144.48;77.23
10688;BME280;5392;42.688;23.298;2023-04-28T00:53:55;57400.91;;;-144.48;76.82
10688;BME280;5392;42.688;23.298;2023-04-28T00:56:22;57380.03;;;-144.48;77.91
10688;BME280;5392;42.688;23.298;2023-04-28T00:58:49;57398.81;;;-144.48;77.15
10688;BME280;5392;42.688;23.298;2023-04-28T01:01:16;57392.56;;;-144.48;77.85
10688;BME280;5392;42.688;23.298;2023-04-28T01:03:43;57400.91;;;-144.48;77.31
10688;BME280;5392;42.688;23.298;2023-04-28T01:06:11;57380.03;;;-144.48;77.83
10688;BME280;5392;42.688;23.298;2023-04-28T01:08:38;57388.38;;;-144.48;78.04
10688;BME280;5392;42.688;23.298;2023-04-28T01:11:05;57392.56;;;-144.48;77.65
10688;BME280;5392;42.688;23.298;2023-04-28T01:13:32;57396.72;;;-144.48;77.82
10688;BME280;5392;42.688;23.298;2023-04-28T01:15:59;57371.69;;;-144.48;77.77
10688;BME280;5392;42.688;23.298;2023-04-28T01:18:26;57377.94;;;-144.48;78.25
10688;BME280;5392;42.688;23.298;2023-04-28T01:20:53;57380.03;;;-144.48;78.45
10688;BME280;5392;42.688;23.298;2023-04-28T01:23:20;57375.84;;;-144.48;78.71
10688;BME280;5392;42.688;23.298;2023-04-28T01:25:46;57400.91;;;-144.48;78.60
10688;BME280;5392;42.688;23.298;2023-04-28T01:28:13;57375.84;;;-144.48;78.93
10688;BME280;5392;42.688;23.298;2023-04-28T01:30:40;57392.56;;;-144.48;78.35
10688;BME280;5392;42.688;23.298;2023-04-28T01:33:07;57382.13;;;-144.48;78.45
10688;BME280;5392;42.688;23.298;2023-04-28T01:35:33;57361.25;;;-144.48;78.56
10688;BME280;5392;42.688;23.298;2023-04-28T01:38:00;57392.56;;;-144.48;78.81
10688;BME280;5392;42.688;23.298;2023-04-28T01:40:27;57369.59;;;-144.48;78.78
10688;BME280;5392;42.688;23.298;2023-04-28T01:42:54;57369.59;;;-144.48;78.14
10688;BME280;5392;42.688;23.298;2023-04-28T01:45:20;57392.56;;;-144.48;78.52
10688;BME280;5392;42.688;23.298;2023-04-28T01:47:47;57344.53;;;-144.48;78.82
10688;BME280;5392;42.688;23.298;2023-04-28T01:50:14;57367.50;;;-144.48;78.67
10688;BME280;5392;42.688;23.298;2023-04-28T01:52:40;57369.59;;;-144.48;79.18
10688;BME280;5392;42.688;23.298;2023-04-28T01:55:07;57384.19;;;-144.48;78.91
10688;BME280;5392;42.688;23.298;2023-04-28T01:57:34;57365.41;;;-144.48;79.25
10688;BME280;5392;42.688;23.298;2023-04-28T02:00:02;57373.75;;;-144.48;79.10
10688;BME280;5392;42.688;23.298;2023-04-28T02:02:30;57367.50;;;-144.48;78.97
10688;BME280;5392;42.688;23.298;2023-04-28T02:04:57;57382.13;;;-144.48;79.40
10688;BME280;5392;42.688;23.298;2023-04-28T02:07:24;57350.81;;;-144.48;79.85
10688;BME280;5392;42.688;23.298;2023-04-28T02:09:50;57354.97;;;-144.48;79.78
10688;BME280;5392;42.688;23.298;2023-04-28T02:12:17;57348.72;;;-144.48;80.51
10688;BME280;5392;42.688;23.298;2023-04-28T02:14:43;57371.69;;;-144.48;80.22
10688;BME280;5392;42.688;23.298;2023-04-28T02:17:11;57371.69;;;-144.48;80.42
10688;BME280;5392;42.688;23.298;2023-04-28T02:19:38;57369.59;;;-144.48;80.81
10688;BME280;5392;42.688;23.298;2023-04-28T02:22:05;57398.81;;;-144.48;81.09
10688;BME280;5392;42.688;23.298;2023-04-28T02:24:35;57354.97;;;-144.48;81.31
10688;BME280;5392;42.688;23.298;2023-04-28T02:27:03;57346.63;;;-144.48;81.97
10688;BME280;5392;42.688;23.298;2023-04-28T02:29:31;57346.63;;;-144.48;81.83
10688;BME280;5392;42.688;23.298;2023-04-28T02:31:57;57398.81;;;-144.48;81.63
10688;BME280;5392;42.688;23.298;2023-04-28T02:34:24;57396.72;;;-144.48;82.40
10688;BME280;5392;42.688;23.298;2023-04-28T02:36:51;57394.63;;;-144.48;81.84
10688;BME280;5392;42.688;23.298;2023-04-28T02:39:18;57377.94;;;-144.48;83.05
10688;BME280;5392;42.688;23.298;2023-04-28T02:41:47;57359.16;;;-144.48;82.88
10688;BME280;5392;42.688;23.298;2023-04-28T02:44:13;57359.16;;;-144.48;83.37
10688;BME280;5392;42.688;23.298;2023-04-28T02:46:41;57384.19;;;-144.48;83.86
10688;BME280;5392;42.688;23.298;2023-04-28T02:49:07;57352.91;;;-144.48;84.26
10688;BME280;5392;42.688;23.298;2023-04-28T02:51:34;57338.28;;;-144.48;85.07
10688;BME280;5392;42.688;23.298;2023-04-28T02:54:01;57352.91;;;-144.48;85.08
10688;BME280;5392;42.688;23.298;2023-04-28T02:56:27;57373.75;;;-144.48;85.38
10688;BME280;5392;42.688;23.298;2023-04-28T02:58:55;57350.81;;;-144.48;85.89
10688;BME280;5392;42.688;23.298;2023-04-28T03:01:22;57367.50;;;-144.48;85.63
10688;BME280;5392;42.688;23.298;2023-04-28T03:03:49;57377.94;;;-144.48;86.37
10688;BME280;5392;42.688;23.298;2023-04-28T03:06:16;57338.28;;;-144.48;86.07
10688;BME280;5392;42.688;23.298;2023-04-28T03:08:42;57377.94;;;-144.48;85.81
10688;BME280;5392;42.688;23.298;2023-04-28T03:11:09;57359.16;;;-144.48;85.64
10688;BME280;5392;42.688;23.298;2023-04-28T03:13:36;57325.75;;;-144.48;85.63
10688;BME280;5392;42.688;23.298;2023-04-28T03:16:03;57367.50;;;-144.48;85.57
10688;BME280;5392;42.688;23.298;2023-04-28T03:18:30;57367.50;;;-144.48;85.35
10688;BME280;5392;42.688;23.298;2023-04-28T03:20:57;57373.75;;;-144.48;84.70
10688;BME280;5392;42.688;23.298;2023-04-28T03:23:23;57369.59;;;-144.48;84.17
10688;BME280;5392;42.688;23.298;2023-04-28T03:25:50;57354.97;;;-144.48;83.47
10688;BME280;5392;42.688;23.298;2023-04-28T03:28:17;57375.84;;;-144.48;82.59
10688;BME280;5392;42.688;23.298;2023-04-28T03:30:44;57340.38;;;-144.48;82.35
10688;BME280;5392;42.688;23.298;2023-04-28T03:33:11;57288.19;;;-144.48;81.89
10688;BME280;5392;42.688;23.298;2023-04-28T03:35:37;57375.84;;;-144.48;81.54
10688;BME280;5392;42.688;23.298;2023-04-28T03:38:04;57357.06;;;-144.48;81.20
10688;BME280;5392;42.688;23.298;2023-04-28T03:40:32;57380.03;;;-144.48;79.23
10688;BME280;5392;42.688;23.298;2023-04-28T03:42:58;57340.38;;;-144.48;78.34
10688;BME280;5392;42.688;23.298;2023-04-28T03:45:28;57384.19;;;-144.48;74.54
10688;BME280;5392;42.688;23.298;2023-04-28T03:47:55;57384.19;;;-144.48;72.46
10688;BME280;5392;42.688;23.298;2023-04-28T03:50:22;57396.72;;;-144.48;70.42
10688;BME280;5392;42.688;23.298;2023-04-28T03:52:51;57354.97;;;-144.48;68.66
10688;BME280;5392;42.688;23.298;2023-04-28T03:55:18;57392.56;;;-144.48;67.06
10688;BME280;5392;42.688;23.298;2023-04-28T03:57:45;57348.72;;;-144.48;65.19
10688;BME280;5392;42.688;23.298;2023-04-28T04:00:12;57369.59;;;-144.48;63.85
10688;BME280;5392;42.688;23.298;2023-04-28T04:02:38;57375.84;;;-144.48;62.81
10688;BME280;5392;42.688;23.298;2023-04-28T04:05:05;57344.53;;;-144.48;62.91
10688;BME280;5392;42.688;23.298;2023-04-28T04:07:32;57346.63;;;-144.48;61.89
10688;BME280;5392;42.688;23.298;2023-04-28T04:09:59;57348.72;;;-144.48;61.43
10688;BME280;5392;42.688;23.298;2023-04-28T04:12:29;57367.50;;;-144.48;60.31
10688;BME280;5392;42.688;23.298;2023-04-28T04:14:55;57363.31;;;-144.48;59.80
10688;BME280;5392;42.688;23.298;2023-04-28T04:17:22;57352.91;;;-144.48;58.78
10688;BME280;5392;42.688;23.298;2023-04-28T04:19:49;57342.47;;;-144.48;58.44
10688;BME280;5392;42.688;23.298;2023-04-28T04:22:15;57386.28;;;-144.48;57.59
10688;BME280;5392;42.688;23.298;2023-04-28T04:24:42;57363.31;;;-144.48;56.54
10688;BME280;5392;42.688;23.298;2023-04-28T04:27:08;57342.47;;;-144.48;56.37
10688;BME280;5392;42.688;23.298;2023-04-28T04:29:36;57346.63;;;-144.48;56.08
10688;BME280;5392;42.688;23.298;2023-04-28T04:32:03;57334.09;;;-144.48;56.42
10688;BME280;5392;42.688;23.298;2023-04-28T04:34:29;57384.19;;;-144.48;55.37
10688;BME280;5392;42.688;23.298;2023-04-28T04:36:57;57354.97;;;-144.48;54.58
10688;BME280;5392;42.688;23.298;2023-04-28T04:39:24;57315.31;;;-144.48;55.08
10688;BME280;5392;42.688;23.298;2023-04-28T04:41:51;57336.19;;;-144.48;54.65
10688;BME280;5392;42.688;23.298;2023-04-28T04:44:17;57375.84;;;-144.48;54.64
10688;BME280;5392;42.688;23.298;2023-04-28T04:46:45;57350.81;;;-144.48;53.88
10688;BME280;5392;42.688;23.298;2023-04-28T04:49:12;57352.91;;;-144.48;53.62
10688;BME280;5392;42.688;23.298;2023-04-28T04:51:39;57288.19;;;-144.48;53.97
10688;BME280;5392;42.688;23.298;2023-04-28T04:54:05;57359.16;;;-144.48;53.78
10688;BME280;5392;42.688;23.298;2023-04-28T04:56:32;57317.41;;;-144.48;52.79
10688;BME280;5392;42.688;23.298;2023-04-28T04:58:59;57352.91;;;-144.48;53.02
10688;BME280;5392;42.688;23.298;2023-04-28T05:01:26;57311.16;;;-144.48;52.82
10688;BME280;5392;42.688;23.298;2023-04-28T05:03:53;57325.75;;;-144.48;52.70
10688;BME280;5392;42.688;23.298;2023-04-28T05:06:19;57325.75;;;-144.48;51.99
10688;BME280;5392;42.688;23.298;2023-04-28T05:08:46;57338.28;;;-144.48;51.83
10688;BME280;5392;42.688;23.298;2023-04-28T05:11:13;57354.97;;;-144.48;52.02
10688;BME280;5392;42.688;23.298;2023-04-28T05:13:40;57359.16;;;-144.48;52.56
10688;BME280;5392;42.688;23.298;2023-04-28T05:16:07;57317.41;;;-144.48;52.00
10688;BME280;5392;42.688;23.298;2023-04-28T05:18:33;57334.09;;;-144.48;51.69
10688;BME280;5392;42.688;23.298;2023-04-28T05:21:01;57313.22;;;-144.48;51.01
10688;BME280;5392;42.688;23.298;2023-04-28T05:23:27;57325.75;;;-144.48;51.67
10688;BME280;5392;42.688;23.298;2023-04-28T05:25:54;57338.28;;;-144.48;51.37
10688;BME280;5392;42.688;23.298;2023-04-28T05:28:21;57350.81;;;-144.48;51.18
10688;BME280;5392;42.688;23.298;2023-04-28T05:30:48;57334.09;;;-144.48;52.69
10688;BME280;5392;42.688;23.298;2023-04-28T05:33:15;57357.06;;;-144.48;52.75
10688;BME280;5392;42.688;23.298;2023-04-28T05:35:41;57323.66;;;-144.48;51.96
10688;BME280;5392;42.688;23.298;2023-04-28T05:38:08;57344.53;;;-144.48;51.84
10688;BME280;5392;42.688;23.298;2023-04-28T05:40:34;57323.66;;;-144.48;52.77
10688;BME280;5392;42.688;23.298;2023-04-28T05:43:01;57340.38;;;-144.48;52.76
10688;BME280;5392;42.688;23.298;2023-04-28T05:45:28;57329.94;;;-144.48;51.70
10688;BME280;5392;42.688;23.298;2023-04-28T05:47:55;57346.63;;;-144.48;51.79
10688;BME280;5392;42.688;23.298;2023-04-28T05:50:22;57334.09;;;-144.48;51.63
10688;BME280;5392;42.688;23.298;2023-04-28T05:52:48;57315.31;;;-144.48;52.09
10688;BME280;5392;42.688;23.298;2023-04-28T05:55:15;57309.06;;;-144.48;52.29
10688;BME280;5392;42.688;23.298;2023-04-28T05:57:41;57298.63;;;-144.48;52.25
10688;BME280;5392;42.688;23.298;2023-04-28T06:00:19;57363.31;;;-144.48;52.51
10688;BME280;5392;42.688;23.298;2023-04-28T06:02:46;57365.41;;;-144.48;52.15
10688;BME280;5392;42.688;23.298;2023-04-28T06:05:12;57361.25;;;-144.48;51.48
10688;BME280;5392;42.688;23.298;2023-04-28T06:07:39;57315.31;;;-144.48;50.89
10688;BME280;5392;42.688;23.298;2023-04-28T06:10:07;57332.03;;;-144.48;51.99
10688;BME280;5392;42.688;23.298;2023-04-28T06:12:34;57311.16;;;-144.48;51.72
10688;BME280;5392;42.688;23.298;2023-04-28T06:15:00;57334.09;;;-144.48;51.27
10688;BME280;5392;42.688;23.298;2023-04-28T06:17:27;57340.38;;;-144.48;51.09
10688;BME280;5392;42.688;23.298;2023-04-28T06:19:56;57304.88;;;-144.48;51.88
10688;BME280;5392;42.688;23.298;2023-04-28T06:22:25;57361.25;;;-144.48;51.79
10688;BME280;5392;42.688;23.298;2023-04-28T06:24:51;57354.97;;;-144.48;50.82
10688;BME280;5392;42.688;23.298;2023-04-28T06:27:18;57348.72;;;-144.48;51.26
10688;BME280;5392;42.688;23.298;2023-04-28T06:29:45;57350.81;;;-144.48;50.96
10688;BME280;5392;42.688;23.298;2023-04-28T06:32:11;57288.19;;;-144.48;50.49
10688;BME280;5392;42.688;23.298;2023-04-28T06:34:38;57334.09;;;-144.48;50.86
10688;BME280;5392;42.688;23.298;2023-04-28T06:37:04;57277.75;;;-144.48;50.16
10688;BME280;5392;42.688;23.298;2023-04-28T06:39:31;57329.94;;;-144.48;51.01
10688;BME280;5392;42.688;23.298;2023-04-28T06:41:58;57317.41;;;-144.48;50.64
10688;BME280;5392;42.688;23.298;2023-04-28T06:44:24;57317.41;;;-144.48;50.93
10688;BME280;5392;42.688;23.298;2023-04-28T06:46:51;57317.41;;;-144.48;50.48
10688;BME280;5392;42.688;23.298;2023-04-28T06:49:18;57352.91;;;-144.48;50.19
10688;BME280;5392;42.688;23.298;2023-04-28T06:51:44;57317.41;;;-144.48;51.14
10688;BME280;5392;42.688;23.298;2023-04-28T06:54:11;57373.75;;;-144.48;51.63
10688;BME280;5392;42.688;23.298;2023-04-28T06:56:39;57340.38;;;-144.48;50.53
10688;BME280;5392;42.688;23.298;2023-04-28T06:59:05;57327.84;;;-144.48;50.60
10688;BME280;5392;42.688;23.298;2023-04-28T07:01:32;57363.31;;;-144.48;50.98
10688;BME280;5392;42.688;23.298;2023-04-28T07:03:59;57342.47;;;-144.48;50.61
10688;BME280;5392;42.688;23.298;2023-04-28T07:06:26;57271.50;;;-144.48;50.03
10688;BME280;5392;42.688;23.298;2023-04-28T07:08:53;57313.22;;;-144.48;50.61
10688;BME280;5392;42.688;23.298;2023-04-28T07:11:20;57352.91;;;-144.48;50.85
10688;BME280;5392;42.688;23.298;2023-04-28T07:13:46;57300.72;;;-144.48;50.79
10688;BME280;5392;42.688;23.298;2023-04-28T07:16:14;57334.09;;;-144.48;51.00
10688;BME280;5392;42.688;23.298;2023-04-28T07:18:41;57334.09;;;-144.48;50.29
10688;BME280;5392;42.688;23.298;2023-04-28T07:21:08;57319.50;;;-144.48;49.81
10688;BME280;5392;42.688;23.298;2023-04-28T07:23:34;57317.41;;;-144.48;49.16
10688;BME280;5392;42.688;23.298;2023-04-28T07:26:04;57311.16;;;-144.48;48.91
10688;BME280;5392;42.688;23.298;2023-04-28T07:28:30;57327.84;;;-144.48;50.76
10688;BME280;5392;42.688;23.298;2023-04-28T07:30:57;57313.22;;;-144.48;50.13
10688;BME280;5392;42.688;23.298;2023-04-28T07:33:24;57284.00;;;-144.48;49.78
10688;BME280;5392;42.688;23.298;2023-04-28T07:35:50;57388.38;;;-144.48;49.90
10688;BME280;5392;42.688;23.298;2023-04-28T07:38:18;57338.28;;;-144.48;49.79
10688;BME280;5392;42.688;23.298;2023-04-28T07:40:46;57332.03;;;-144.48;50.11
10688;BME280;5392;42.688;23.298;2023-04-28T07:43:12;57363.31;;;-144.48;49.86
10688;BME280;5392;42.688;23.298;2023-04-28T07:45:40;57327.84;;;-144.48;49.61
10688;BME280;5392;42.688;23.298;2023-04-28T07:48:07;57300.72;;;-144.48;49.18
10688;BME280;5392;42.688;23.298;2023-04-28T07:50:34;57346.63;;;-144.48;49.48
10688;BME280;5392;42.688;23.298;2023-04-28T07:53:00;57363.31;;;-144.48;50.79
10688;BME280;5392;42.688;23.298;2023-04-28T07:55:27;57315.31;;;-144.48;52.16
10688;BME280;5392;42.688;23.298;2023-04-28T07:57:54;57354.97;;;-144.48;51.28
10688;BME280;5392;42.688;23.298;2023-04-28T08:00:22;57392.56;;;-144.48;50.84
10688;BME280;5392;42.688;23.298;2023-04-28T08:02:49;57346.63;;;-144.48;49.91
10688;BME280;5392;42.688;23.298;2023-04-28T08:05:16;57325.75;;;-144.48;49.82
10688;BME280;5392;42.688;23.298;2023-04-28T08:07:44;57336.19;;;-144.48;49.93
10688;BME280;5392;42.688;23.298;2023-04-28T08:10:10;57296.53;;;-144.48;48.79
10688;BME280;5392;42.688;23.298;2023-04-28T08:12:37;57321.59;;;-144.48;48.76
10688;BME280;5392;42.688;23.298;2023-04-28T08:15:08;57342.47;;;-144.48;49.34
10688;BME280;5392;42.688;23.298;2023-04-28T08:17:35;57336.19;;;-144.48;48.08
10688;BME280;5392;42.688;23.298;2023-04-28T08:20:02;57332.03;;;-144.48;48.79
10688;BME280;5392;42.688;23.298;2023-04-28T08:22:29;57311.16;;;-144.48;48.47
10688;BME280;5392;42.688;23.298;2023-04-28T08:24:55;57294.44;;;-144.48;47.80
10688;BME280;5392;42.688;23.298;2023-04-28T08:27:22;57332.03;;;-144.48;48.67
10688;BME280;5392;42.688;23.298;2023-04-28T08:29:51;57367.50;;;-144.48;48.26
10688;BME280;5392;42.688;23.298;2023-04-28T08:32:18;57334.09;;;-144.48;49.39
10688;BME280;5392;42.688;23.298;2023-04-28T08:34:44;57354.97;;;-144.48;50.61
10688;BME280;5392;42.688;23.298;2023-04-28T08:37:11;57329.94;;;-144.48;50.02
10688;BME280;5392;42.688;23.298;2023-04-28T08:39:38;57352.91;;;-144.48;50.19
10688;BME280;5392;42.688;23.298;2023-04-28T08:42:05;57325.75;;;-144.48;50.66
10688;BME280;5392;42.688;23.298;2023-04-28T08:44:36;57332.03;;;-144.48;50.54
10688;BME280;5392;42.688;23.298;2023-04-28T08:47:12;57309.06;;;-144.48;51.36
10688;BME280;5392;42.688;23.298;2023-04-28T08:49:42;57348.72;;;-144.48;52.21
10688;BME280;5392;42.688;23.298;2023-04-28T08:52:11;57292.38;;;-144.48;52.32
10688;BME280;5392;42.688;23.298;2023-04-28T08:54:38;57346.63;;;-144.48;52.97
10688;BME280;5392;42.688;23.298;2023-04-28T08:57:09;57361.25;;;-144.48;53.08
10688;BME280;5392;42.688;23.298;2023-04-28T08:59:40;57327.84;;;-144.48;53.95
10688;BME280;5392;42.688;23.298;2023-04-28T09:02:07;57334.09;;;-144.48;54.40
10688;BME280;5392;42.688;23.298;2023-04-28T09:04:35;57327.84;;;-144.48;54.21
10688;BME280;5392;42.688;23.298;2023-04-28T09:07:02;57327.84;;;-144.48;55.11
10688;BME280;5392;42.688;23.298;2023-04-28T09:09:29;57361.25;;;-144.48;55.53
10688;BME280;5392;42.688;23.298;2023-04-28T09:12:03;57380.03;;;-144.48;55.39
10688;BME280;5392;42.688;23.298;2023-04-28T09:14:31;57357.06;;;-144.48;55.16
10688;BME280;5392;42.688;23.298;2023-04-28T09:17:08;57357.06;;;-144.48;55.06
10688;BME280;5392;42.688;23.298;2023-04-28T09:19:36;57342.47;;;-144.48;54.75
10688;BME280;5392;42.688;23.298;2023-04-28T09:22:04;57371.69;;;-144.48;54.99
10688;BME280;5392;42.688;23.298;2023-04-28T09:24:52;57363.31;;;-144.48;54.33
10688;BME280;5392;42.688;23.298;2023-04-28T09:27:25;57342.47;;;-144.48;53.90
10688;BME280;5392;42.688;23.298;2023-04-28T09:29:53;57332.03;;;-144.48;54.29
10688;BME280;5392;42.688;23.298;2023-04-28T09:32:21;57357.06;;;-144.48;54.40
10688;BME280;5392;42.688;23.298;2023-04-28T09:34:54;57342.47;;;-144.48;54.82
10688;BME280;5392;42.688;23.298;2023-04-28T09:37:26;57371.69;;;-144.48;54.74
10688;BME280;5392;42.688;23.298;2023-04-28T09:39:57;57323.66;;;-144.48;55.28
10688;BME280;5392;42.688;23.298;2023-04-28T09:42:34;57323.66;;;-144.48;55.12
10688;BME280;5392;42.688;23.298;2023-04-28T09:45:02;57350.81;;;-144.48;54.72
10688;BME280;5392;42.688;23.298;2023-04-28T09:47:30;57346.63;;;-144.48;54.71
10688;BME280;5392;42.688;23.298;2023-04-28T09:50:01;57348.72;;;-144.48;54.38
10688;BME280;5392;42.688;23.298;2023-04-28T09:52:28;57323.66;;;-144.48;54.29
10688;BME280;5392;42.688;23.298;2023-04-28T09:54:55;57394.63;;;-144.48;53.65
10688;BME280;5392;42.688;23.298;2023-04-28T09:57:22;57359.16;;;-144.48;53.86
10688;BME280;5392;42.688;23.298;2023-04-28T09:59:50;57384.19;;;-144.48;53.75
10688;BME280;5392;42.688;23.298;2023-04-28T10:02:19;57323.66;;;-144.48;54.91
10688;BME280;5392;42.688;23.298;2023-04-28T10:05:07;57359.16;;;-144.48;55.87
10688;BME280;5392;42.688;23.298;2023-04-28T10:07:39;57348.72;;;-144.48;55.19
10688;BME280;5392;42.688;23.298;2023-04-28T10:10:07;57332.03;;;-144.48;54.56
10688;BME280;5392;42.688;23.298;2023-04-28T10:12:34;57344.53;;;-144.48;54.50
10688;BME280;5392;42.688;23.298;2023-04-28T10:15:04;57369.59;;;-144.48;53.77
10688;BME280;5392;42.688;23.298;2023-04-28T10:17:32;57363.31;;;-144.48;53.17
10688;BME280;5392;42.688;23.298;2023-04-28T10:20:00;57348.72;;;-144.48;53.92
10688;BME280;5392;42.688;23.298;2023-04-28T10:22:44;57380.03;;;-144.48;54.67
10688;BME280;5392;42.688;23.298;2023-04-28T10:25:35;57357.06;;;-144.48;54.03
10688;BME280;5392;42.688;23.298;2023-04-28T10:28:07;57359.16;;;-144.48;54.64
10688;BME280;5392;42.688;23.298;2023-04-28T10:30:34;57338.28;;;-144.48;54.65
10688;BME280;5392;42.688;23.298;2023-04-28T10:35:46;57338.28;;;-144.48;54.81
10688;BME280;5392;42.688;23.298;2023-04-28T10:40:42;57363.31;;;-144.48;54.08
10688;BME280;5392;42.688;23.298;2023-04-28T10:46:02;57346.63;;;-144.48;54.01
10688;BME280;5392;42.688;23.298;2023-04-28T10:56:18;57309.06;;;-144.48;54.44
10688;BME280;5392;42.688;23.298;2023-04-28T10:58:48;57359.16;;;-144.48;54.76
10688;BME280;5392;42.688;23.298;2023-04-28T11:06:41;57338.28;;;-144.48;55.29
10688;BME280;5392;42.688;23.298;2023-04-28T11:17:04;57348.72;;;-144.48;54.45
10688;BME280;5392;42.688;23.298;2023-04-28T11:19:33;57363.31;;;-144.48;53.70
10688;BME280;5392;42.688;23.298;2023-04-28T11:22:26;57375.84;;;-144.48;53.98
10688;BME280;5392;42.688;23.298;2023-04-28T11:24:54;57369.59;;;-144.48;53.05
10688;BME280;5392;42.688;23.298;2023-04-28T11:27:26;57336.19;;;-144.48;53.71
10688;BME280;5392;42.688;23.298;2023-04-28T11:29:54;57346.63;;;-144.48;54.13
10688;BME280;5392;42.688;23.298;2023-04-28T11:32:34;57350.81;;;-144.48;54.32
10688;BME280;5392;42.688;23.298;2023-04-28T11:35:02;57371.69;;;-144.48;53.86
10688;BME280;5392;42.688;23.298;2023-04-28T11:37:30;57336.19;;;-144.48;53.44
10688;BME280;5392;42.688;23.298;2023-04-28T11:39:56;57346.63;;;-144.48;53.78
10688;BME280;5392;42.688;23.298;2023-04-28T11:42:23;57344.53;;;-144.48;54.57
10688;BME280;5392;42.688;23.298;2023-04-28T11:44:53;57344.53;;;-144.48;54.56
10688;BME280;5392;42.688;23.298;2023-04-28T11:47:33;57375.84;;;-144.48;54.21
10688;BME280;5392;42.688;23.298;2023-04-28T11:50:00;57296.53;;;-144.48;53.95
10688;BME280;5392;42.688;23.298;2023-04-28T11:52:28;57327.84;;;-144.48;53.77
10688;BME280;5392;42.688;23.298;2023-04-28T11:54:56;57371.69;;;-144.48;53.91
10688;BME280;5392;42.688;23.298;2023-04-28T11:57:24;57354.97;;;-144.48;53.32
10688;BME280;5392;42.688;23.298;2023-04-28T11:59:52;57321.59;;;-144.48;53.96
10688;BME280;5392;42.688;23.298;2023-04-28T12:02:26;57317.41;;;-144.48;53.76
10688;BME280;5392;42.688;23.298;2023-04-28T12:05:04;57386.28;;;-144.48;53.82
10688;BME280;5392;42.688;23.298;2023-04-28T12:07:40;57338.28;;;-144.48;53.76
10688;BME280;5392;42.688;23.298;2023-04-28T12:10:14;57329.94;;;-144.48;53.48
10688;BME280;5392;42.688;23.298;2023-04-28T12:12:43;57329.94;;;-144.48;53.67
10688;BME280;5392;42.688;23.298;2023-04-28T12:15:19;57357.06;;;-144.48;53.95
10688;BME280;5392;42.688;23.298;2023-04-28T12:17:47;57346.63;;;-144.48;54.44
10688;BME280;5392;42.688;23.298;2023-04-28T12:20:37;57344.53;;;-144.48;54.04
10688;BME280;5392;42.688;23.298;2023-04-28T12:23:05;57340.38;;;-144.48;53.83
10688;BME280;5392;42.688;23.298;2023-04-28T12:25:42;57313.22;;;-144.48;53.43
10688;BME280;5392;42.688;23.298;2023-04-28T12:28:10;57340.38;;;-144.48;53.40
10688;BME280;5392;42.688;23.298;2023-04-28T12:30:37;57332.03;;;-144.48;52.92
10688;BME280;5392;42.688;23.298;2023-04-28T12:33:20;57365.41;;;-144.48;52.81
10688;BME280;5392;42.688;23.298;2023-04-28T12:35:47;57346.63;;;-144.48;52.96
10688;BME280;5392;42.688;23.298;2023-04-28T12:38:15;57311.16;;;-144.48;52.87
10688;BME280;5392;42.688;23.298;2023-04-28T12:40:42;57329.94;;;-144.48;52.88
10688;BME280;5392;42.688;23.298;2023-04-28T12:43:09;57365.41;;;-144.48;52.90
10688;BME280;5392;42.688;23.298;2023-04-28T12:45:36;57386.28;;;-144.48;53.39
10688;BME280;5392;42.688;23.298;2023-04-28T12:48:04;57323.66;;;-144.48;53.57
10688;BME280;5392;42.688;23.298;2023-04-28T12:50:31;57348.72;;;-144.48;53.10
10688;BME280;5392;42.688;23.298;2023-04-28T12:52:58;57317.41;;;-144.48;52.39
10688;BME280;5392;42.688;23.298;2023-04-28T12:55:25;57334.09;;;-144.48;52.92
10688;BME280;5392;42.688;23.298;2023-04-28T12:57:53;57332.03;;;-144.48;53.29
10688;BME280;5392;42.688;23.298;2023-04-28T13:00:20;57334.09;;;-144.48;53.31
10688;BME280;5392;42.688;23.298;2023-04-28T13:02:49;57354.97;;;-144.48;53.55
10688;BME280;5392;42.688;23.298;2023-04-28T13:05:16;57361.25;;;-144.48;53.35
10688;BME280;5392;42.688;23.298;2023-04-28T13:07:44;57298.63;;;-144.48;53.46
10688;BME280;5392;42.688;23.298;2023-04-28T13:10:11;57323.66;;;-144.48;53.91
10688;BME280;5392;42.688;23.298;2023-04-28T13:12:39;57361.25;;;-144.48;53.54
10688;BME280;5392;42.688;23.298;2023-04-28T13:15:07;57371.69;;;-144.48;53.48